sensor_id;sensor_type;location;lat;lon;timestamp;P1;durP1;ratioP1;P2;durP2;ratioP2
317;SDS011;146;53.448;10.228;2023-03-04T00:01:17;8.77;;;4.50;;
317;SDS011;146;53.448;10.228;2023-03-04T00:03:46;10.60;;;4.30;;
317;SDS011;146;53.448;10.228;2023-03-04T00:06:13;5.70;;;3.03;;
317;SDS011;146;53.448;10.228;2023-03-04T00:08:46;4.37;;;3.63;;
317;SDS011;146;53.448;10.228;2023-03-04T00:11:22;10.20;;;4.50;;
317;SDS011;146;53.448;10.228;2023-03-04T00:13:52;5.80;;;4.10;;
317;SDS011;146;53.448;10.228;2023-03-04T00:16:31;6.97;;;3.63;;
317;SDS011;146;53.448;10.228;2023-03-04T00:19:01;8.73;;;3.80;;
317;SDS011;146;53.448;10.228;2023-03-04T00:21:43;5.37;;;3.60;;
317;SDS011;146;53.448;10.228;2023-03-04T00:24:14;7.60;;;4.00;;
317;SDS011;146;53.448;10.228;2023-03-04T00:26:41;7.77;;;4.00;;
317;SDS011;146;53.448;10.228;2023-03-04T00:29:08;5.27;;;3.97;;
317;SDS011;146;53.448;10.228;2023-03-04T00:31:38;5.60;;;3.87;;
317;SDS011;146;53.448;10.228;2023-03-04T00:34:06;7.90;;;3.90;;
317;SDS011;146;53.448;10.228;2023-03-04T00:36:35;4.17;;;2.97;;
317;SDS011;146;53.448;10.228;2023-03-04T00:39:09;10.37;;;4.00;;
317;SDS011;146;53.448;10.228;2023-03-04T00:41:42;9.87;;;3.33;;
317;SDS011;146;53.448;10.228;2023-03-04T00:44:19;3.63;;;2.80;;
317;SDS011;146;53.448;10.228;2023-03-04T00:46:58;3.97;;;2.77;;
317;SDS011;146;53.448;10.228;2023-03-04T00:49:29;4.60;;;2.93;;
317;SDS011;146;53.448;10.228;2023-03-04T00:51:56;4.87;;;2.70;;
317;SDS011;146;53.448;10.228;2023-03-04T00:54:26;6.33;;;2.70;;
317;SDS011;146;53.448;10.228;2023-03-04T00:56:56;5.53;;;3.17;;
317;SDS011;146;53.448;10.228;2023-03-04T00:59:24;5.20;;;2.20;;
317;SDS011;146;53.448;10.228;2023-03-04T01:01:54;8.93;;;2.70;;
317;SDS011;146;53.448;10.228;2023-03-04T01:04:23;4.33;;;2.23;;
317;SDS011;146;53.448;10.228;2023-03-04T01:06:57;7.10;;;2.77;;
317;SDS011;146;53.448;10.228;2023-03-04T01:09:24;6.33;;;2.37;;
317;SDS011;146;53.448;10.228;2023-03-04T01:11:51;8.03;;;2.97;;
317;SDS011;146;53.448;10.228;2023-03-04T01:14:24;7.03;;;2.60;;
317;SDS011;146;53.448;10.228;2023-03-04T01:16:55;5.30;;;2.23;;
317;SDS011;146;53.448;10.228;2023-03-04T01:19:24;8.20;;;2.20;;
317;SDS011;146;53.448;10.228;2023-03-04T01:21:54;4.60;;;2.10;;
317;SDS011;146;53.448;10.228;2023-03-04T01:24:29;3.47;;;1.60;;
317;SDS011;146;53.448;10.228;2023-03-04T01:26:55;4.10;;;1.90;;
317;SDS011;146;53.448;10.228;2023-03-04T01:29:27;3.10;;;1.90;;
317;SDS011;146;53.448;10.228;2023-03-04T01:31:53;3.40;;;2.10;;
317;SDS011;146;53.448;10.228;2023-03-04T01:34:26;4.93;;;2.03;;
317;SDS011;146;53.448;10.228;2023-03-04T01:36:53;3.80;;;1.70;;
317;SDS011;146;53.448;10.228;2023-03-04T01:39:22;3.73;;;1.43;;
317;SDS011;146;53.448;10.228;2023-03-04T01:41:52;3.13;;;1.37;;
317;SDS011;146;53.448;10.228;2023-03-04T01:44:19;7.10;;;1.70;;
317;SDS011;146;53.448;10.228;2023-03-04T01:46:47;3.70;;;1.77;;
317;SDS011;146;53.448;10.228;2023-03-04T01:49:17;4.10;;;1.90;;
317;SDS011;146;53.448;10.228;2023-03-04T01:51:45;4.50;;;1.90;;
317;SDS011;146;53.448;10.228;2023-03-04T01:54:14;2.47;;;1.30;;
317;SDS011;146;53.448;10.228;2023-03-04T01:56:43;4.27;;;2.23;;
317;SDS011;146;53.448;10.228;2023-03-04T01:59:12;4.87;;;1.43;;
317;SDS011;146;53.448;10.228;2023-03-04T02:01:44;6.50;;;1.70;;
317;SDS011;146;53.448;10.228;2023-03-04T02:04:13;3.67;;;1.50;;
317;SDS011;146;53.448;10.228;2023-03-04T02:06:47;11.50;;;1.40;;
317;SDS011;146;53.448;10.228;2023-03-04T02:09:16;4.63;;;1.63;;
317;SDS011;146;53.448;10.228;2023-03-04T02:11:49;5.10;;;1.40;;
317;SDS011;146;53.448;10.228;2023-03-04T02:14:20;2.60;;;2.10;;
317;SDS011;146;53.448;10.228;2023-03-04T02:16:54;8.03;;;1.53;;
317;SDS011;146;53.448;10.228;2023-03-04T02:19:30;11.03;;;1.70;;
317;SDS011;146;53.448;10.228;2023-03-04T02:22:14;5.47;;;1.43;;
317;SDS011;146;53.448;10.228;2023-03-04T02:24:44;2.70;;;1.10;;
317;SDS011;146;53.448;10.228;2023-03-04T02:27:16;6.60;;;1.30;;
317;SDS011;146;53.448;10.228;2023-03-04T02:29:44;2.40;;;1.63;;
317;SDS011;146;53.448;10.228;2023-03-04T02:32:14;7.40;;;1.87;;
317;SDS011;146;53.448;10.228;2023-03-04T02:34:49;9.70;;;1.90;;
317;SDS011;146;53.448;10.228;2023-03-04T02:37:16;2.70;;;0.97;;
317;SDS011;146;53.448;10.228;2023-03-04T02:39:46;3.07;;;1.40;;
317;SDS011;146;53.448;10.228;2023-03-04T02:42:14;2.43;;;1.50;;
317;SDS011;146;53.448;10.228;2023-03-04T02:44:45;1.83;;;1.33;;
317;SDS011;146;53.448;10.228;2023-03-04T02:47:15;4.10;;;1.13;;
317;SDS011;146;53.448;10.228;2023-03-04T02:49:43;2.13;;;1.10;;
317;SDS011;146;53.448;10.228;2023-03-04T02:52:12;1.90;;;1.47;;
317;SDS011;146;53.448;10.228;2023-03-04T02:54:48;3.57;;;1.40;;
317;SDS011;146;53.448;10.228;2023-03-04T02:57:16;3.70;;;1.50;;
317;SDS011;146;53.448;10.228;2023-03-04T02:59:55;7.90;;;1.67;;
317;SDS011;146;53.448;10.228;2023-03-04T03:02:33;4.83;;;1.83;;
317;SDS011;146;53.448;10.228;2023-03-04T03:05:00;7.93;;;1.70;;
317;SDS011;146;53.448;10.228;2023-03-04T03:07:33;8.17;;;2.40;;
317;SDS011;146;53.448;10.228;2023-03-04T03:10:03;4.53;;;1.77;;
317;SDS011;146;53.448;10.228;2023-03-04T03:12:43;2.73;;;1.40;;
317;SDS011;146;53.448;10.228;2023-03-04T03:15:14;3.30;;;1.80;;
317;SDS011;146;53.448;10.228;2023-03-04T03:17:41;7.03;;;2.37;;
317;SDS011;146;53.448;10.228;2023-03-04T03:20:09;3.13;;;1.47;;
317;SDS011;146;53.448;10.228;2023-03-04T03:22:37;3.83;;;2.00;;
317;SDS011;146;53.448;10.228;2023-03-04T03:25:08;3.90;;;1.90;;
317;SDS011;146;53.448;10.228;2023-03-04T03:27:36;5.03;;;1.90;;
317;SDS011;146;53.448;10.228;2023-03-04T03:30:19;8.80;;;2.33;;
317;SDS011;146;53.448;10.228;2023-03-04T03:32:55;7.90;;;1.63;;
317;SDS011;146;53.448;10.228;2023-03-04T03:35:28;5.97;;;2.23;;
317;SDS011;146;53.448;10.228;2023-03-04T03:37:55;5.27;;;2.67;;
317;SDS011;146;53.448;10.228;2023-03-04T03:40:31;4.57;;;2.43;;
317;SDS011;146;53.448;10.228;2023-03-04T03:42:58;10.87;;;2.37;;
317;SDS011;146;53.448;10.228;2023-03-04T03:45:36;6.23;;;2.40;;
317;SDS011;146;53.448;10.228;2023-03-04T03:48:03;4.83;;;2.10;;
317;SDS011;146;53.448;10.228;2023-03-04T03:50:45;6.13;;;2.17;;
317;SDS011;146;53.448;10.228;2023-03-04T03:53:12;6.37;;;2.60;;
317;SDS011;146;53.448;10.228;2023-03-04T03:55:42;2.20;;;1.73;;
317;SDS011;146;53.448;10.228;2023-03-04T03:58:09;5.63;;;2.27;;
317;SDS011;146;53.448;10.228;2023-03-04T04:00:41;8.63;;;2.10;;
317;SDS011;146;53.448;10.228;2023-03-04T04:03:13;3.90;;;1.60;;
317;SDS011;146;53.448;10.228;2023-03-04T04:05:41;3.17;;;1.17;;
317;SDS011;146;53.448;10.228;2023-03-04T04:08:13;6.43;;;1.60;;
317;SDS011;146;53.448;10.228;2023-03-04T04:10:41;6.37;;;2.00;;
317;SDS011;146;53.448;10.228;2023-03-04T04:13:23;1.40;;;1.30;;
317;SDS011;146;53.448;10.228;2023-03-04T04:18:36;6.70;;;1.93;;
317;SDS011;146;53.448;10.228;2023-03-04T04:21:17;2.40;;;1.67;;
317;SDS011;146;53.448;10.228;2023-03-04T04:23:50;4.23;;;1.73;;
317;SDS011;146;53.448;10.228;2023-03-04T04:26:17;5.70;;;2.23;;
317;SDS011;146;53.448;10.228;2023-03-04T04:28:44;2.33;;;1.70;;
317;SDS011;146;53.448;10.228;2023-03-04T04:31:16;8.57;;;2.00;;
317;SDS011;146;53.448;10.228;2023-03-04T04:33:59;6.13;;;2.00;;
317;SDS011;146;53.448;10.228;2023-03-04T04:36:30;8.70;;;1.80;;
317;SDS011;146;53.448;10.228;2023-03-04T04:39:07;7.73;;;2.00;;
317;SDS011;146;53.448;10.228;2023-03-04T04:41:36;3.40;;;3.10;;
317;SDS011;146;53.448;10.228;2023-03-04T04:44:05;3.73;;;2.30;;
317;SDS011;146;53.448;10.228;2023-03-04T04:46:33;5.80;;;2.70;;
317;SDS011;146;53.448;10.228;2023-03-04T04:49:01;4.20;;;2.23;;
317;SDS011;146;53.448;10.228;2023-03-04T04:51:34;3.80;;;1.80;;
317;SDS011;146;53.448;10.228;2023-03-04T04:54:03;8.90;;;2.47;;
317;SDS011;146;53.448;10.228;2023-03-04T04:56:33;5.10;;;2.33;;
317;SDS011;146;53.448;10.228;2023-03-04T04:59:03;4.03;;;2.40;;
317;SDS011;146;53.448;10.228;2023-03-04T05:01:33;5.10;;;3.23;;
317;SDS011;146;53.448;10.228;2023-03-04T05:04:07;2.27;;;1.80;;
317;SDS011;146;53.448;10.228;2023-03-04T05:06:37;3.40;;;2.00;;
317;SDS011;146;53.448;10.228;2023-03-04T05:09:10;4.10;;;1.80;;
317;SDS011;146;53.448;10.228;2023-03-04T05:11:45;7.40;;;2.83;;
317;SDS011;146;53.448;10.228;2023-03-04T05:14:12;2.23;;;1.60;;
317;SDS011;146;53.448;10.228;2023-03-04T05:16:41;4.53;;;1.83;;
317;SDS011;146;53.448;10.228;2023-03-04T05:19:08;3.60;;;2.00;;
317;SDS011;146;53.448;10.228;2023-03-04T05:21:37;5.67;;;2.30;;
317;SDS011;146;53.448;10.228;2023-03-04T05:24:07;2.60;;;2.03;;
317;SDS011;146;53.448;10.228;2023-03-04T05:26:41;2.60;;;2.20;;
317;SDS011;146;53.448;10.228;2023-03-04T05:29:08;3.33;;;1.70;;
317;SDS011;146;53.448;10.228;2023-03-04T05:31:45;1.70;;;1.40;;
317;SDS011;146;53.448;10.228;2023-03-04T05:34:12;4.93;;;1.40;;
317;SDS011;146;53.448;10.228;2023-03-04T05:36:40;4.13;;;2.10;;
317;SDS011;146;53.448;10.228;2023-03-04T05:39:25;3.13;;;1.13;;
317;SDS011;146;53.448;10.228;2023-03-04T05:41:55;7.00;;;1.73;;
317;SDS011;146;53.448;10.228;2023-03-04T05:44:22;3.60;;;2.10;;
317;SDS011;146;53.448;10.228;2023-03-04T05:46:50;1.37;;;1.10;;
317;SDS011;146;53.448;10.228;2023-03-04T05:49:17;4.87;;;2.23;;
317;SDS011;146;53.448;10.228;2023-03-04T05:51:44;3.57;;;1.67;;
317;SDS011;146;53.448;10.228;2023-03-04T05:54:17;9.80;;;2.23;;
317;SDS011;146;53.448;10.228;2023-03-04T05:56:44;4.77;;;2.43;;
317;SDS011;146;53.448;10.228;2023-03-04T05:59:11;7.63;;;2.70;;
317;SDS011;146;53.448;10.228;2023-03-04T06:01:38;6.80;;;2.50;;
317;SDS011;146;53.448;10.228;2023-03-04T06:04:12;6.90;;;2.80;;
317;SDS011;146;53.448;10.228;2023-03-04T06:06:42;5.07;;;2.90;;
317;SDS011;146;53.448;10.228;2023-03-04T06:09:10;7.50;;;4.23;;
317;SDS011;146;53.448;10.228;2023-03-04T06:11:37;6.80;;;2.23;;
317;SDS011;146;53.448;10.228;2023-03-04T06:14:04;8.30;;;2.97;;
317;SDS011;146;53.448;10.228;2023-03-04T06:16:43;6.00;;;3.30;;
317;SDS011;146;53.448;10.228;2023-03-04T06:19:15;7.90;;;2.80;;
317;SDS011;146;53.448;10.228;2023-03-04T06:21:42;9.77;;;4.37;;
317;SDS011;146;53.448;10.228;2023-03-04T06:24:12;6.90;;;2.63;;
317;SDS011;146;53.448;10.228;2023-03-04T06:26:39;6.50;;;3.30;;
317;SDS011;146;53.448;10.228;2023-03-04T06:29:13;7.67;;;2.77;;
317;SDS011;146;53.448;10.228;2023-03-04T06:31:43;9.13;;;3.57;;
317;SDS011;146;53.448;10.228;2023-03-04T06:34:10;12.83;;;4.37;;
317;SDS011;146;53.448;10.228;2023-03-04T06:36:44;11.73;;;4.67;;
317;SDS011;146;53.448;10.228;2023-03-04T06:39:16;7.97;;;3.27;;
317;SDS011;146;53.448;10.228;2023-03-04T06:41:46;8.43;;;2.40;;
317;SDS011;146;53.448;10.228;2023-03-04T06:44:16;6.40;;;2.60;;
317;SDS011;146;53.448;10.228;2023-03-04T06:46:44;11.07;;;3.60;;
317;SDS011;146;53.448;10.228;2023-03-04T06:49:15;11.63;;;2.80;;
317;SDS011;146;53.448;10.228;2023-03-04T06:51:43;4.80;;;2.50;;
317;SDS011;146;53.448;10.228;2023-03-04T06:54:10;7.03;;;3.07;;
317;SDS011;146;53.448;10.228;2023-03-04T06:56:37;12.23;;;2.60;;
317;SDS011;146;53.448;10.228;2023-03-04T06:59:03;10.67;;;2.87;;
317;SDS011;146;53.448;10.228;2023-03-04T07:01:44;6.67;;;1.80;;
317;SDS011;146;53.448;10.228;2023-03-04T07:04:37;6.50;;;2.53;;
317;SDS011;146;53.448;10.228;2023-03-04T07:07:13;7.60;;;2.00;;
317;SDS011;146;53.448;10.228;2023-03-04T07:09:40;6.13;;;2.30;;
317;SDS011;146;53.448;10.228;2023-03-04T07:12:10;5.13;;;1.30;;
317;SDS011;146;53.448;10.228;2023-03-04T07:14:37;5.80;;;2.37;;
317;SDS011;146;53.448;10.228;2023-03-04T07:17:04;7.07;;;2.43;;
317;SDS011;146;53.448;10.228;2023-03-04T07:19:31;15.80;;;2.53;;
317;SDS011;146;53.448;10.228;2023-03-04T07:22:02;6.63;;;1.97;;
317;SDS011;146;53.448;10.228;2023-03-04T07:24:31;3.30;;;2.40;;
317;SDS011;146;53.448;10.228;2023-03-04T07:27:06;6.07;;;2.30;;
317;SDS011;146;53.448;10.228;2023-03-04T07:29:33;6.03;;;2.07;;
317;SDS011;146;53.448;10.228;2023-03-04T07:32:00;5.33;;;2.30;;
317;SDS011;146;53.448;10.228;2023-03-04T07:34:27;8.50;;;2.63;;
317;SDS011;146;53.448;10.228;2023-03-04T07:36:54;3.40;;;1.57;;
317;SDS011;146;53.448;10.228;2023-03-04T07:39:27;6.87;;;1.50;;
317;SDS011;146;53.448;10.228;2023-03-04T07:41:55;4.27;;;2.10;;
317;SDS011;146;53.448;10.228;2023-03-04T07:44:25;17.50;;;2.83;;
317;SDS011;146;53.448;10.228;2023-03-04T07:46:52;5.20;;;1.37;;
317;SDS011;146;53.448;10.228;2023-03-04T07:49:24;5.50;;;1.73;;
317;SDS011;146;53.448;10.228;2023-03-04T07:51:51;6.53;;;1.77;;
317;SDS011;146;53.448;10.228;2023-03-04T07:54:21;5.57;;;2.00;;
317;SDS011;146;53.448;10.228;2023-03-04T07:56:47;6.50;;;2.17;;
317;SDS011;146;53.448;10.228;2023-03-04T07:59:15;5.60;;;2.47;;
317;SDS011;146;53.448;10.228;2023-03-04T08:01:42;9.40;;;2.53;;
317;SDS011;146;53.448;10.228;2023-03-04T08:04:15;4.30;;;2.47;;
317;SDS011;146;53.448;10.228;2023-03-04T08:06:45;4.00;;;2.00;;
317;SDS011;146;53.448;10.228;2023-03-04T08:09:12;6.03;;;2.17;;
317;SDS011;146;53.448;10.228;2023-03-04T08:11:39;8.43;;;3.00;;
317;SDS011;146;53.448;10.228;2023-03-04T08:14:07;6.30;;;1.90;;
317;SDS011;146;53.448;10.228;2023-03-04T08:16:35;5.17;;;2.23;;
317;SDS011;146;53.448;10.228;2023-03-04T08:19:03;6.23;;;1.70;;
317;SDS011;146;53.448;10.228;2023-03-04T08:21:31;5.50;;;2.03;;
317;SDS011;146;53.448;10.228;2023-03-04T08:24:12;6.50;;;1.90;;
317;SDS011;146;53.448;10.228;2023-03-04T08:26:40;7.20;;;2.60;;
317;SDS011;146;53.448;10.228;2023-03-04T08:29:26;4.77;;;2.37;;
317;SDS011;146;53.448;10.228;2023-03-04T08:31:54;13.87;;;3.67;;
317;SDS011;146;53.448;10.228;2023-03-04T08:34:29;9.93;;;2.40;;
317;SDS011;146;53.448;10.228;2023-03-04T08:36:59;9.10;;;2.87;;
317;SDS011;146;53.448;10.228;2023-03-04T08:39:29;8.97;;;2.43;;
317;SDS011;146;53.448;10.228;2023-03-04T08:42:06;7.90;;;4.13;;
317;SDS011;146;53.448;10.228;2023-03-04T09:13:31;11.53;;;2.90;;
317;SDS011;146;53.448;10.228;2023-03-04T09:16:14;5.97;;;2.30;;
317;SDS011;146;53.448;10.228;2023-03-04T09:18:44;8.80;;;3.00;;
317;SDS011;146;53.448;10.228;2023-03-04T09:21:20;9.83;;;3.10;;
317;SDS011;146;53.448;10.228;2023-03-04T09:23:46;12.73;;;2.80;;
317;SDS011;146;53.448;10.228;2023-03-04T09:26:19;8.93;;;2.43;;
317;SDS011;146;53.448;10.228;2023-03-04T09:28:49;7.93;;;2.70;;
317;SDS011;146;53.448;10.228;2023-03-04T09:31:16;10.13;;;3.80;;
317;SDS011;146;53.448;10.228;2023-03-04T09:33:43;7.07;;;3.30;;
317;SDS011;146;53.448;10.228;2023-03-04T09:36:14;6.30;;;2.33;;
317;SDS011;146;53.448;10.228;2023-03-04T09:38:47;10.87;;;3.10;;
317;SDS011;146;53.448;10.228;2023-03-04T09:41:23;14.77;;;3.67;;
317;SDS011;146;53.448;10.228;2023-03-04T09:44:04;9.47;;;3.07;;
317;SDS011;146;53.448;10.228;2023-03-04T09:46:47;6.60;;;3.60;;
317;SDS011;146;53.448;10.228;2023-03-04T09:49:15;10.13;;;2.90;;
317;SDS011;146;53.448;10.228;2023-03-04T09:51:45;5.80;;;2.40;;
317;SDS011;146;53.448;10.228;2023-03-04T09:54:36;12.43;;;3.20;;
317;SDS011;146;53.448;10.228;2023-03-04T09:57:25;7.33;;;3.20;;
317;SDS011;146;53.448;10.228;2023-03-04T10:02:52;6.80;;;2.63;;
317;SDS011;146;53.448;10.228;2023-03-04T10:05:45;11.90;;;2.90;;
317;SDS011;146;53.448;10.228;2023-03-04T10:08:23;7.30;;;3.00;;
317;SDS011;146;53.448;10.228;2023-03-04T10:11:12;8.40;;;2.60;;
317;SDS011;146;53.448;10.228;2023-03-04T10:16:35;7.03;;;2.97;;
317;SDS011;146;53.448;10.228;2023-03-04T10:19:15;13.67;;;4.07;;
317;SDS011;146;53.448;10.228;2023-03-04T10:24:41;6.20;;;2.50;;
317;SDS011;146;53.448;10.228;2023-03-04T10:27:11;9.27;;;2.80;;
317;SDS011;146;53.448;10.228;2023-03-04T10:29:44;9.10;;;2.73;;
317;SDS011;146;53.448;10.228;2023-03-04T10:32:14;9.43;;;2.83;;
317;SDS011;146;53.448;10.228;2023-03-04T10:34:43;8.53;;;2.73;;
317;SDS011;146;53.448;10.228;2023-03-04T10:37:13;11.93;;;3.10;;
317;SDS011;146;53.448;10.228;2023-03-04T10:39:52;12.40;;;3.20;;
317;SDS011;146;53.448;10.228;2023-03-04T10:42:27;15.17;;;3.30;;
317;SDS011;146;53.448;10.228;2023-03-04T10:45:02;9.57;;;2.60;;
317;SDS011;146;53.448;10.228;2023-03-04T10:47:30;9.33;;;2.63;;
317;SDS011;146;53.448;10.228;2023-03-04T10:50:20;8.97;;;4.43;;
317;SDS011;146;53.448;10.228;2023-03-04T10:52:48;10.00;;;2.93;;
317;SDS011;146;53.448;10.228;2023-03-04T10:55:41;14.87;;;3.30;;
317;SDS011;146;53.448;10.228;2023-03-04T10:58:10;5.60;;;2.83;;
317;SDS011;146;53.448;10.228;2023-03-04T11:00:43;9.37;;;3.00;;
317;SDS011;146;53.448;10.228;2023-03-04T11:03:32;12.00;;;2.87;;
317;SDS011;146;53.448;10.228;2023-03-04T11:06:05;7.50;;;2.97;;
317;SDS011;146;53.448;10.228;2023-03-04T11:08:35;5.60;;;2.60;;
317;SDS011;146;53.448;10.228;2023-03-04T11:11:37;6.27;;;3.00;;
317;SDS011;146;53.448;10.228;2023-03-04T11:14:25;9.90;;;4.07;;
317;SDS011;146;53.448;10.228;2023-03-04T11:16:58;7.53;;;3.47;;
317;SDS011;146;53.448;10.228;2023-03-04T11:19:33;10.93;;;3.90;;
317;SDS011;146;53.448;10.228;2023-03-04T11:22:10;11.53;;;4.07;;
317;SDS011;146;53.448;10.228;2023-03-04T11:24:40;5.30;;;3.00;;
317;SDS011;146;53.448;10.228;2023-03-04T11:27:14;8.83;;;3.53;;
317;SDS011;146;53.448;10.228;2023-03-04T11:29:49;10.80;;;3.30;;
317;SDS011;146;53.448;10.228;2023-03-04T11:32:30;8.27;;;3.33;;
317;SDS011;146;53.448;10.228;2023-03-04T11:35:21;7.17;;;3.30;;
317;SDS011;146;53.448;10.228;2023-03-04T11:38:01;6.80;;;2.93;;
317;SDS011;146;53.448;10.228;2023-03-04T11:40:57;13.67;;;3.43;;
317;SDS011;146;53.448;10.228;2023-03-04T11:43:28;10.40;;;3.70;;
317;SDS011;146;53.448;10.228;2023-03-04T11:48:59;8.27;;;3.10;;
317;SDS011;146;53.448;10.228;2023-03-04T11:51:39;9.73;;;3.13;;
317;SDS011;146;53.448;10.228;2023-03-04T11:54:15;10.07;;;3.20;;
317;SDS011;146;53.448;10.228;2023-03-04T11:56:51;4.07;;;2.17;;
317;SDS011;146;53.448;10.228;2023-03-04T11:59:25;8.00;;;2.80;;
317;SDS011;146;53.448;10.228;2023-03-04T12:02:10;9.90;;;3.70;;
317;SDS011;146;53.448;10.228;2023-03-04T12:05:16;9.43;;;3.20;;
317;SDS011;146;53.448;10.228;2023-03-04T12:07:58;7.03;;;2.67;;
317;SDS011;146;53.448;10.228;2023-03-04T12:10:46;11.53;;;3.00;;
317;SDS011;146;53.448;10.228;2023-03-04T12:13:24;9.57;;;2.23;;
317;SDS011;146;53.448;10.228;2023-03-04T12:16:14;10.13;;;2.57;;
317;SDS011;146;53.448;10.228;2023-03-04T12:19:06;6.43;;;2.07;;
317;SDS011;146;53.448;10.228;2023-03-04T12:27:42;6.77;;;3.33;;
317;SDS011;146;53.448;10.228;2023-03-04T12:30:18;11.37;;;2.93;;
317;SDS011;146;53.448;10.228;2023-03-04T12:33:06;8.10;;;2.73;;
317;SDS011;146;53.448;10.228;2023-03-04T12:35:51;10.40;;;4.40;;
317;SDS011;146;53.448;10.228;2023-03-04T12:38:34;10.00;;;3.30;;
317;SDS011;146;53.448;10.228;2023-03-04T12:41:22;5.00;;;2.80;;
317;SDS011;146;53.448;10.228;2023-03-04T12:43:59;10.30;;;3.57;;
317;SDS011;146;53.448;10.228;2023-03-04T12:46:49;8.43;;;2.63;;
317;SDS011;146;53.448;10.228;2023-03-04T12:52:31;7.77;;;3.17;;
317;SDS011;146;53.448;10.228;2023-03-04T12:55:09;13.63;;;3.80;;
317;SDS011;146;53.448;10.228;2023-03-04T12:57:38;9.77;;;3.70;;
317;SDS011;146;53.448;10.228;2023-03-04T13:00:16;17.77;;;4.20;;
317;SDS011;146;53.448;10.228;2023-03-04T13:02:53;4.80;;;3.37;;
317;SDS011;146;53.448;10.228;2023-03-04T13:05:37;5.80;;;2.97;;
317;SDS011;146;53.448;10.228;2023-03-04T13:08:30;8.20;;;3.57;;
317;SDS011;146;53.448;10.228;2023-03-04T13:14:07;15.87;;;3.93;;
317;SDS011;146;53.448;10.228;2023-03-04T13:17:01;6.33;;;2.60;;
317;SDS011;146;53.448;10.228;2023-03-04T13:19:55;9.43;;;3.73;;
317;SDS011;146;53.448;10.228;2023-03-04T13:31:05;6.30;;;2.80;;
317;SDS011;146;53.448;10.228;2023-03-04T13:33:45;6.80;;;3.13;;
317;SDS011;146;53.448;10.228;2023-03-04T13:49:21;8.77;;;3.57;;
317;SDS011;146;53.448;10.228;2023-03-04T13:51:50;6.60;;;3.03;;
317;SDS011;146;53.448;10.228;2023-03-04T13:54:20;7.73;;;3.20;;
317;SDS011;146;53.448;10.228;2023-03-04T13:59:57;9.33;;;2.80;;
317;SDS011;146;53.448;10.228;2023-03-04T14:02:29;5.40;;;1.90;;
317;SDS011;146;53.448;10.228;2023-03-04T14:05:00;12.10;;;3.70;;
317;SDS011;146;53.448;10.228;2023-03-04T14:07:34;10.40;;;4.30;;
317;SDS011;146;53.448;10.228;2023-03-04T14:10:05;8.50;;;3.10;;
317;SDS011;146;53.448;10.228;2023-03-04T14:12:34;5.70;;;3.17;;
317;SDS011;146;53.448;10.228;2023-03-04T14:15:03;10.53;;;2.40;;
317;SDS011;146;53.448;10.228;2023-03-04T14:17:33;8.47;;;3.27;;
317;SDS011;146;53.448;10.228;2023-03-04T14:20:02;13.87;;;3.10;;
317;SDS011;146;53.448;10.228;2023-03-04T14:22:43;8.10;;;2.83;;
317;SDS011;146;53.448;10.228;2023-03-04T14:25:50;6.00;;;2.77;;
317;SDS011;146;53.448;10.228;2023-03-04T14:28:24;8.20;;;2.70;;
317;SDS011;146;53.448;10.228;2023-03-04T14:30:55;8.63;;;3.03;;
317;SDS011;146;53.448;10.228;2023-03-04T14:33:24;4.93;;;2.40;;
317;SDS011;146;53.448;10.228;2023-03-04T14:35:53;7.87;;;3.90;;
317;SDS011;146;53.448;10.228;2023-03-04T14:38:24;5.90;;;2.47;;
317;SDS011;146;53.448;10.228;2023-03-04T14:41:13;6.00;;;3.00;;
317;SDS011;146;53.448;10.228;2023-03-04T14:43:45;12.80;;;4.30;;
317;SDS011;146;53.448;10.228;2023-03-04T14:46:24;8.80;;;3.43;;
317;SDS011;146;53.448;10.228;2023-03-04T14:49:00;8.40;;;3.23;;
317;SDS011;146;53.448;10.228;2023-03-04T14:51:32;5.87;;;3.50;;
317;SDS011;146;53.448;10.228;2023-03-04T14:56:58;6.23;;;2.90;;
317;SDS011;146;53.448;10.228;2023-03-04T14:59:27;7.60;;;2.63;;
317;SDS011;146;53.448;10.228;2023-03-04T15:02:15;8.97;;;3.27;;
317;SDS011;146;53.448;10.228;2023-03-04T15:04:47;8.50;;;3.10;;
317;SDS011;146;53.448;10.228;2023-03-04T15:07:23;7.83;;;2.13;;
317;SDS011;146;53.448;10.228;2023-03-04T15:09:56;11.70;;;3.30;;
317;SDS011;146;53.448;10.228;2023-03-04T15:12:26;4.70;;;2.40;;
317;SDS011;146;53.448;10.228;2023-03-04T15:14:55;6.10;;;2.77;;
317;SDS011;146;53.448;10.228;2023-03-04T15:17:28;7.47;;;2.07;;
317;SDS011;146;53.448;10.228;2023-03-04T15:20:25;6.33;;;2.73;;
317;SDS011;146;53.448;10.228;2023-03-04T15:23:03;12.17;;;2.53;;
317;SDS011;146;53.448;10.228;2023-03-04T15:25:32;10.90;;;2.67;;
317;SDS011;146;53.448;10.228;2023-03-04T15:28:02;12.77;;;2.53;;
317;SDS011;146;53.448;10.228;2023-03-04T15:30:34;7.10;;;2.53;;
317;SDS011;146;53.448;10.228;2023-03-04T15:33:04;5.53;;;2.37;;
317;SDS011;146;53.448;10.228;2023-03-04T15:35:39;6.30;;;2.13;;
317;SDS011;146;53.448;10.228;2023-03-04T15:38:17;6.30;;;2.40;;
317;SDS011;146;53.448;10.228;2023-03-04T15:40:44;8.50;;;2.13;;
317;SDS011;146;53.448;10.228;2023-03-04T15:43:18;4.90;;;2.80;;
317;SDS011;146;53.448;10.228;2023-03-04T15:45:49;4.67;;;1.80;;
317;SDS011;146;53.448;10.228;2023-03-04T15:48:23;2.97;;;1.97;;
317;SDS011;146;53.448;10.228;2023-03-04T15:50:53;4.50;;;2.33;;
317;SDS011;146;53.448;10.228;2023-03-04T15:53:26;8.03;;;2.43;;
317;SDS011;146;53.448;10.228;2023-03-04T15:55:57;5.27;;;1.60;;
317;SDS011;146;53.448;10.228;2023-03-04T15:58:30;14.10;;;5.40;;
317;SDS011;146;53.448;10.228;2023-03-04T16:00:59;6.30;;;2.37;;
317;SDS011;146;53.448;10.228;2023-03-04T16:03:28;7.80;;;2.87;;
317;SDS011;146;53.448;10.228;2023-03-04T16:06:02;6.70;;;2.63;;
317;SDS011;146;53.448;10.228;2023-03-04T16:08:45;5.50;;;2.47;;
317;SDS011;146;53.448;10.228;2023-03-04T16:11:14;6.83;;;2.03;;
317;SDS011;146;53.448;10.228;2023-03-04T16:13:43;4.60;;;1.90;;
317;SDS011;146;53.448;10.228;2023-03-04T16:16:22;7.73;;;2.10;;
317;SDS011;146;53.448;10.228;2023-03-04T16:18:51;6.67;;;1.77;;
317;SDS011;146;53.448;10.228;2023-03-04T16:21:25;5.07;;;2.03;;
317;SDS011;146;53.448;10.228;2023-03-04T16:23:58;5.23;;;3.17;;
317;SDS011;146;53.448;10.228;2023-03-04T16:26:31;6.90;;;3.20;;
317;SDS011;146;53.448;10.228;2023-03-04T16:28:59;8.17;;;2.13;;
317;SDS011;146;53.448;10.228;2023-03-04T16:31:28;7.73;;;2.60;;
317;SDS011;146;53.448;10.228;2023-03-04T16:33:55;6.87;;;1.90;;
317;SDS011;146;53.448;10.228;2023-03-04T16:36:23;5.43;;;2.43;;
317;SDS011;146;53.448;10.228;2023-03-04T16:39:07;8.70;;;2.90;;
317;SDS011;146;53.448;10.228;2023-03-04T16:41:44;5.33;;;2.43;;
317;SDS011;146;53.448;10.228;2023-03-04T16:44:11;4.87;;;2.40;;
317;SDS011;146;53.448;10.228;2023-03-04T16:49:24;5.30;;;1.80;;
317;SDS011;146;53.448;10.228;2023-03-04T16:52:02;5.27;;;2.40;;
317;SDS011;146;53.448;10.228;2023-03-04T16:54:35;12.00;;;2.10;;
317;SDS011;146;53.448;10.228;2023-03-04T16:57:05;3.30;;;2.27;;
317;SDS011;146;53.448;10.228;2023-03-04T16:59:35;6.43;;;2.23;;
317;SDS011;146;53.448;10.228;2023-03-04T17:02:05;3.50;;;1.83;;
317;SDS011;146;53.448;10.228;2023-03-04T17:04:35;4.43;;;2.47;;
317;SDS011;146;53.448;10.228;2023-03-04T17:07:04;5.40;;;2.40;;
317;SDS011;146;53.448;10.228;2023-03-04T17:09:31;5.43;;;1.97;;
317;SDS011;146;53.448;10.228;2023-03-04T17:12:02;6.83;;;1.90;;
317;SDS011;146;53.448;10.228;2023-03-04T17:14:29;4.20;;;1.37;;
317;SDS011;146;53.448;10.228;2023-03-04T17:16:59;6.43;;;1.93;;
317;SDS011;146;53.448;10.228;2023-03-04T17:19:27;4.87;;;2.33;;
317;SDS011;146;53.448;10.228;2023-03-04T17:21:54;9.70;;;2.47;;
317;SDS011;146;53.448;10.228;2023-03-04T17:24:25;7.20;;;2.00;;
317;SDS011;146;53.448;10.228;2023-03-04T17:26:59;6.10;;;2.47;;
317;SDS011;146;53.448;10.228;2023-03-04T17:29:28;4.30;;;2.33;;